Terminal Aerodrome Forecast
Issued by NWS

Home | Current Version | Previous Version | Text Only | Print | Product List | Glossary On
Versions: 1 2 3 4 5 6 7 8 9 10 11 12 13 14 15 16 17
252
FTUS46 KSGX 011142
TAFCRQ
TAF
KCRQ 011142Z 0112/0212 16003KT P6SM SCT015
      TEMPO 0112/0116 BKN015
     FM011900 24010KT P6SM FEW025
     FM020200 VRB04KT P6SM SCT015
     FM020600 VRB04KT P6SM BKN015=

USA.gov is the U.S. government's official web portal to all federal, state and local government web resources and services.